sensor_id;sensor_type;location;lat;lon;timestamp;P1;durP1;ratioP1;P2;durP2;ratioP2
69305;SDS011;56427;51.580;4.656;2023-04-25T00:00:18;18.23;;;4.33;;
69305;SDS011;56427;51.580;4.656;2023-04-25T00:02:44;19.50;;;4.40;;
69305;SDS011;56427;51.580;4.656;2023-04-25T00:05:09;17.25;;;4.03;;
69305;SDS011;56427;51.580;4.656;2023-04-25T00:07:35;16.13;;;4.18;;
69305;SDS011;56427;51.580;4.656;2023-04-25T00:10:00;15.53;;;4.20;;
69305;SDS011;56427;51.580;4.656;2023-04-25T00:12:26;12.45;;;4.13;;
69305;SDS011;56427;51.580;4.656;2023-04-25T00:14:53;13.33;;;4.00;;
69305;SDS011;56427;51.580;4.656;2023-04-25T00:17:21;16.23;;;4.30;;
69305;SDS011;56427;51.580;4.656;2023-04-25T00:19:49;12.63;;;3.90;;
69305;SDS011;56427;51.580;4.656;2023-04-25T00:22:15;16.13;;;4.47;;
69305;SDS011;56427;51.580;4.656;2023-04-25T00:24:40;15.17;;;4.63;;
69305;SDS011;56427;51.580;4.656;2023-04-25T00:27:06;13.63;;;4.30;;
69305;SDS011;56427;51.580;4.656;2023-04-25T00:29:31;17.95;;;3.92;;
69305;SDS011;56427;51.580;4.656;2023-04-25T00:31:57;17.95;;;4.20;;
69305;SDS011;56427;51.580;4.656;2023-04-25T00:34:22;14.93;;;4.30;;
69305;SDS011;56427;51.580;4.656;2023-04-25T00:36:47;16.63;;;4.63;;
69305;SDS011;56427;51.580;4.656;2023-04-25T00:39:13;12.70;;;4.93;;
69305;SDS011;56427;51.580;4.656;2023-04-25T00:41:38;13.30;;;4.80;;
69305;SDS011;56427;51.580;4.656;2023-04-25T00:44:04;17.40;;;4.50;;
69305;SDS011;56427;51.580;4.656;2023-04-25T00:46:31;17.95;;;4.97;;
69305;SDS011;56427;51.580;4.656;2023-04-25T00:48:57;18.73;;;4.70;;
69305;SDS011;56427;51.580;4.656;2023-04-25T00:51:22;16.67;;;4.83;;
69305;SDS011;56427;51.580;4.656;2023-04-25T00:53:51;15.90;;;4.50;;
69305;SDS011;56427;51.580;4.656;2023-04-25T00:56:17;17.87;;;4.67;;
69305;SDS011;56427;51.580;4.656;2023-04-25T00:58:42;20.83;;;4.90;;
69305;SDS011;56427;51.580;4.656;2023-04-25T01:01:08;14.15;;;4.85;;
69305;SDS011;56427;51.580;4.656;2023-04-25T01:03:35;20.15;;;4.53;;
69305;SDS011;56427;51.580;4.656;2023-04-25T01:06:06;16.45;;;4.80;;
69305;SDS011;56427;51.580;4.656;2023-04-25T01:08:33;23.92;;;5.45;;
69305;SDS011;56427;51.580;4.656;2023-04-25T01:10:59;18.33;;;5.80;;
69305;SDS011;56427;51.580;4.656;2023-04-25T01:13:24;19.70;;;5.83;;
69305;SDS011;56427;51.580;4.656;2023-04-25T01:15:49;28.27;;;6.07;;
69305;SDS011;56427;51.580;4.656;2023-04-25T01:18:15;27.60;;;5.77;;
69305;SDS011;56427;51.580;4.656;2023-04-25T01:20:41;27.15;;;6.47;;
69305;SDS011;56427;51.580;4.656;2023-04-25T01:23:07;20.23;;;4.93;;
69305;SDS011;56427;51.580;4.656;2023-04-25T01:25:32;24.58;;;5.80;;
69305;SDS011;56427;51.580;4.656;2023-04-25T01:27:58;17.88;;;5.43;;
69305;SDS011;56427;51.580;4.656;2023-04-25T01:30:25;22.47;;;5.10;;
69305;SDS011;56427;51.580;4.656;2023-04-25T01:32:52;19.13;;;6.05;;
69305;SDS011;56427;51.580;4.656;2023-04-25T01:35:20;19.50;;;5.90;;
69305;SDS011;56427;51.580;4.656;2023-04-25T01:37:46;19.40;;;7.05;;
69305;SDS011;56427;51.580;4.656;2023-04-25T01:40:12;21.00;;;5.90;;
69305;SDS011;56427;51.580;4.656;2023-04-25T01:42:39;27.47;;;6.40;;
69305;SDS011;56427;51.580;4.656;2023-04-25T01:45:06;24.48;;;6.03;;
69305;SDS011;56427;51.580;4.656;2023-04-25T01:47:32;25.48;;;6.22;;
69305;SDS011;56427;51.580;4.656;2023-04-25T01:50:00;22.98;;;5.65;;
69305;SDS011;56427;51.580;4.656;2023-04-25T01:52:26;21.23;;;6.60;;
69305;SDS011;56427;51.580;4.656;2023-04-25T01:54:51;27.13;;;6.00;;
69305;SDS011;56427;51.580;4.656;2023-04-25T01:57:18;26.17;;;5.88;;
69305;SDS011;56427;51.580;4.656;2023-04-25T01:59:44;27.63;;;6.03;;
69305;SDS011;56427;51.580;4.656;2023-04-25T02:02:10;28.10;;;6.18;;
69305;SDS011;56427;51.580;4.656;2023-04-25T02:04:36;17.47;;;5.57;;
69305;SDS011;56427;51.580;4.656;2023-04-25T02:07:01;23.50;;;6.50;;
69305;SDS011;56427;51.580;4.656;2023-04-25T02:09:27;20.45;;;6.03;;
69305;SDS011;56427;51.580;4.656;2023-04-25T02:11:52;20.47;;;6.23;;
69305;SDS011;56427;51.580;4.656;2023-04-25T02:14:18;20.57;;;5.77;;
69305;SDS011;56427;51.580;4.656;2023-04-25T02:16:43;18.15;;;5.28;;
69305;SDS011;56427;51.580;4.656;2023-04-25T02:19:09;23.02;;;5.80;;
69305;SDS011;56427;51.580;4.656;2023-04-25T02:21:35;19.20;;;5.30;;
69305;SDS011;56427;51.580;4.656;2023-04-25T02:24:00;20.85;;;5.30;;
69305;SDS011;56427;51.580;4.656;2023-04-25T02:26:26;23.83;;;4.57;;
69305;SDS011;56427;51.580;4.656;2023-04-25T02:28:51;18.63;;;5.37;;
69305;SDS011;56427;51.580;4.656;2023-04-25T02:31:17;17.38;;;4.25;;
69305;SDS011;56427;51.580;4.656;2023-04-25T02:33:42;17.47;;;4.33;;
69305;SDS011;56427;51.580;4.656;2023-04-25T02:36:09;18.08;;;5.18;;
69305;SDS011;56427;51.580;4.656;2023-04-25T02:38:34;12.80;;;3.43;;
69305;SDS011;56427;51.580;4.656;2023-04-25T02:41:00;21.47;;;4.70;;
69305;SDS011;56427;51.580;4.656;2023-04-25T02:43:25;20.47;;;4.97;;
69305;SDS011;56427;51.580;4.656;2023-04-25T02:45:50;15.73;;;4.40;;
69305;SDS011;56427;51.580;4.656;2023-04-25T02:48:16;15.65;;;3.83;;
69305;SDS011;56427;51.580;4.656;2023-04-25T02:50:41;24.07;;;4.00;;
69305;SDS011;56427;51.580;4.656;2023-04-25T02:53:07;13.90;;;3.73;;
69305;SDS011;56427;51.580;4.656;2023-04-25T02:55:32;19.23;;;3.90;;
69305;SDS011;56427;51.580;4.656;2023-04-25T02:57:57;25.92;;;6.32;;
69305;SDS011;56427;51.580;4.656;2023-04-25T03:00:23;15.75;;;3.95;;
69305;SDS011;56427;51.580;4.656;2023-04-25T03:02:49;14.27;;;3.67;;
69305;SDS011;56427;51.580;4.656;2023-04-25T03:05:14;16.05;;;3.72;;
69305;SDS011;56427;51.580;4.656;2023-04-25T03:07:40;16.50;;;3.37;;
69305;SDS011;56427;51.580;4.656;2023-04-25T03:10:06;11.40;;;3.13;;
69305;SDS011;56427;51.580;4.656;2023-04-25T03:12:32;13.52;;;3.42;;
69305;SDS011;56427;51.580;4.656;2023-04-25T03:14:57;14.37;;;3.53;;
69305;SDS011;56427;51.580;4.656;2023-04-25T03:17:23;20.00;;;3.70;;
69305;SDS011;56427;51.580;4.656;2023-04-25T03:19:48;15.77;;;3.40;;
69305;SDS011;56427;51.580;4.656;2023-04-25T03:22:14;17.13;;;3.43;;
69305;SDS011;56427;51.580;4.656;2023-04-25T03:24:39;12.70;;;3.63;;
69305;SDS011;56427;51.580;4.656;2023-04-25T03:27:05;13.17;;;3.20;;
69305;SDS011;56427;51.580;4.656;2023-04-25T03:29:30;12.93;;;3.30;;
69305;SDS011;56427;51.580;4.656;2023-04-25T03:31:56;17.05;;;3.60;;
69305;SDS011;56427;51.580;4.656;2023-04-25T03:34:21;16.43;;;3.60;;
69305;SDS011;56427;51.580;4.656;2023-04-25T03:36:47;10.13;;;3.63;;
69305;SDS011;56427;51.580;4.656;2023-04-25T03:39:12;11.75;;;3.30;;
69305;SDS011;56427;51.580;4.656;2023-04-25T03:41:37;16.30;;;3.87;;
69305;SDS011;56427;51.580;4.656;2023-04-25T03:44:03;13.57;;;3.80;;
69305;SDS011;56427;51.580;4.656;2023-04-25T03:46:28;14.63;;;3.27;;
69305;SDS011;56427;51.580;4.656;2023-04-25T03:48:54;12.88;;;3.75;;
69305;SDS011;56427;51.580;4.656;2023-04-25T03:51:19;13.53;;;3.47;;
69305;SDS011;56427;51.580;4.656;2023-04-25T03:53:46;16.20;;;3.73;;
69305;SDS011;56427;51.580;4.656;2023-04-25T03:56:12;13.05;;;3.90;;
69305;SDS011;56427;51.580;4.656;2023-04-25T03:58:38;10.10;;;3.33;;
69305;SDS011;56427;51.580;4.656;2023-04-25T04:01:03;12.43;;;3.90;;
69305;SDS011;56427;51.580;4.656;2023-04-25T04:03:32;11.57;;;3.63;;
69305;SDS011;56427;51.580;4.656;2023-04-25T04:06:01;14.73;;;3.63;;
69305;SDS011;56427;51.580;4.656;2023-04-25T04:08:28;18.60;;;3.90;;
69305;SDS011;56427;51.580;4.656;2023-04-25T04:10:54;13.17;;;3.70;;
69305;SDS011;56427;51.580;4.656;2023-04-25T04:13:20;17.77;;;4.07;;
69305;SDS011;56427;51.580;4.656;2023-04-25T04:15:45;14.87;;;3.43;;
69305;SDS011;56427;51.580;4.656;2023-04-25T04:18:10;14.63;;;3.08;;
69305;SDS011;56427;51.580;4.656;2023-04-25T04:20:36;10.50;;;3.47;;
69305;SDS011;56427;51.580;4.656;2023-04-25T04:23:01;18.10;;;3.23;;
69305;SDS011;56427;51.580;4.656;2023-04-25T04:25:26;15.70;;;3.73;;
69305;SDS011;56427;51.580;4.656;2023-04-25T04:27:52;11.60;;;3.50;;
69305;SDS011;56427;51.580;4.656;2023-04-25T04:30:20;13.63;;;3.42;;
69305;SDS011;56427;51.580;4.656;2023-04-25T04:32:48;10.10;;;3.35;;
69305;SDS011;56427;51.580;4.656;2023-04-25T04:35:14;11.70;;;3.50;;
69305;SDS011;56427;51.580;4.656;2023-04-25T04:37:39;11.80;;;3.43;;
69305;SDS011;56427;51.580;4.656;2023-04-25T04:40:05;12.13;;;3.00;;
69305;SDS011;56427;51.580;4.656;2023-04-25T04:42:31;12.85;;;3.25;;
69305;SDS011;56427;51.580;4.656;2023-04-25T04:44:57;10.63;;;2.97;;
69305;SDS011;56427;51.580;4.656;2023-04-25T04:47:23;10.02;;;3.20;;
69305;SDS011;56427;51.580;4.656;2023-04-25T04:49:49;15.82;;;3.10;;
69305;SDS011;56427;51.580;4.656;2023-04-25T04:52:14;7.73;;;3.00;;
69305;SDS011;56427;51.580;4.656;2023-04-25T04:54:40;13.90;;;3.37;;
69305;SDS011;56427;51.580;4.656;2023-04-25T04:57:05;9.57;;;3.33;;
69305;SDS011;56427;51.580;4.656;2023-04-25T04:59:31;8.23;;;3.40;;
69305;SDS011;56427;51.580;4.656;2023-04-25T05:01:56;16.70;;;4.00;;
69305;SDS011;56427;51.580;4.656;2023-04-25T05:04:21;13.77;;;4.23;;
69305;SDS011;56427;51.580;4.656;2023-04-25T05:06:47;10.83;;;3.80;;
69305;SDS011;56427;51.580;4.656;2023-04-25T05:09:12;15.83;;;4.30;;
69305;SDS011;56427;51.580;4.656;2023-04-25T05:11:37;16.48;;;4.30;;
69305;SDS011;56427;51.580;4.656;2023-04-25T05:14:03;20.00;;;4.47;;
69305;SDS011;56427;51.580;4.656;2023-04-25T05:16:28;13.07;;;4.80;;
69305;SDS011;56427;51.580;4.656;2023-04-25T05:18:53;15.93;;;4.50;;
69305;SDS011;56427;51.580;4.656;2023-04-25T05:21:19;14.30;;;3.07;;
69305;SDS011;56427;51.580;4.656;2023-04-25T05:23:44;11.57;;;2.60;;
69305;SDS011;56427;51.580;4.656;2023-04-25T05:26:10;9.17;;;2.10;;
69305;SDS011;56427;51.580;4.656;2023-04-25T05:28:39;7.32;;;2.10;;
69305;SDS011;56427;51.580;4.656;2023-04-25T05:31:05;11.45;;;2.42;;
69305;SDS011;56427;51.580;4.656;2023-04-25T05:33:31;11.47;;;2.17;;
69305;SDS011;56427;51.580;4.656;2023-04-25T05:35:56;7.50;;;2.17;;
69305;SDS011;56427;51.580;4.656;2023-04-25T05:38:21;8.10;;;2.33;;
69305;SDS011;56427;51.580;4.656;2023-04-25T05:40:46;9.27;;;2.53;;
69305;SDS011;56427;51.580;4.656;2023-04-25T05:43:12;9.50;;;2.22;;
69305;SDS011;56427;51.580;4.656;2023-04-25T05:45:37;8.40;;;2.37;;
69305;SDS011;56427;51.580;4.656;2023-04-25T05:48:03;6.60;;;2.33;;
69305;SDS011;56427;51.580;4.656;2023-04-25T05:50:28;9.77;;;2.43;;
69305;SDS011;56427;51.580;4.656;2023-04-25T05:52:53;9.03;;;2.47;;
69305;SDS011;56427;51.580;4.656;2023-04-25T05:55:19;6.82;;;2.50;;
69305;SDS011;56427;51.580;4.656;2023-04-25T05:57:44;7.18;;;2.40;;
69305;SDS011;56427;51.580;4.656;2023-04-25T06:00:11;8.83;;;2.80;;
69305;SDS011;56427;51.580;4.656;2023-04-25T06:02:37;12.20;;;2.70;;
69305;SDS011;56427;51.580;4.656;2023-04-25T06:05:03;11.47;;;2.70;;
69305;SDS011;56427;51.580;4.656;2023-04-25T06:07:29;7.05;;;2.47;;
69305;SDS011;56427;51.580;4.656;2023-04-25T06:09:55;7.57;;;2.30;;
69305;SDS011;56427;51.580;4.656;2023-04-25T06:12:21;5.68;;;2.00;;
69305;SDS011;56427;51.580;4.656;2023-04-25T06:14:46;8.73;;;2.67;;
69305;SDS011;56427;51.580;4.656;2023-04-25T06:17:11;7.63;;;2.20;;
69305;SDS011;56427;51.580;4.656;2023-04-25T06:19:37;9.00;;;2.20;;
69305;SDS011;56427;51.580;4.656;2023-04-25T06:22:02;8.83;;;2.30;;
69305;SDS011;56427;51.580;4.656;2023-04-25T06:24:27;8.73;;;2.00;;
69305;SDS011;56427;51.580;4.656;2023-04-25T06:26:53;8.40;;;2.60;;
69305;SDS011;56427;51.580;4.656;2023-04-25T06:29:18;5.77;;;2.43;;
69305;SDS011;56427;51.580;4.656;2023-04-25T06:31:44;9.47;;;2.20;;
69305;SDS011;56427;51.580;4.656;2023-04-25T06:34:09;7.40;;;2.47;;
69305;SDS011;56427;51.580;4.656;2023-04-25T06:36:35;11.93;;;2.87;;
69305;SDS011;56427;51.580;4.656;2023-04-25T06:39:00;8.23;;;2.20;;
69305;SDS011;56427;51.580;4.656;2023-04-25T06:41:25;11.57;;;2.80;;
69305;SDS011;56427;51.580;4.656;2023-04-25T06:43:51;7.93;;;2.53;;
69305;SDS011;56427;51.580;4.656;2023-04-25T06:46:16;14.10;;;3.27;;
69305;SDS011;56427;51.580;4.656;2023-04-25T06:48:41;6.50;;;2.25;;
69305;SDS011;56427;51.580;4.656;2023-04-25T06:51:07;7.63;;;1.90;;
69305;SDS011;56427;51.580;4.656;2023-04-25T06:53:32;11.33;;;2.53;;
69305;SDS011;56427;51.580;4.656;2023-04-25T06:55:58;12.23;;;2.70;;
69305;SDS011;56427;51.580;4.656;2023-04-25T06:58:23;13.87;;;2.70;;
69305;SDS011;56427;51.580;4.656;2023-04-25T07:00:48;9.93;;;2.40;;
69305;SDS011;56427;51.580;4.656;2023-04-25T07:03:14;8.27;;;2.03;;
69305;SDS011;56427;51.580;4.656;2023-04-25T07:05:39;10.53;;;2.33;;
69305;SDS011;56427;51.580;4.656;2023-04-25T07:08:05;12.30;;;2.53;;
69305;SDS011;56427;51.580;4.656;2023-04-25T07:10:30;8.23;;;1.93;;
69305;SDS011;56427;51.580;4.656;2023-04-25T07:12:56;8.03;;;1.80;;
69305;SDS011;56427;51.580;4.656;2023-04-25T07:15:21;10.63;;;2.60;;
69305;SDS011;56427;51.580;4.656;2023-04-25T07:17:47;7.73;;;2.17;;
69305;SDS011;56427;51.580;4.656;2023-04-25T07:20:12;8.50;;;1.95;;
69305;SDS011;56427;51.580;4.656;2023-04-25T07:22:38;12.53;;;2.00;;
69305;SDS011;56427;51.580;4.656;2023-04-25T07:25:04;9.38;;;2.05;;
69305;SDS011;56427;51.580;4.656;2023-04-25T07:27:31;9.53;;;1.77;;
69305;SDS011;56427;51.580;4.656;2023-04-25T07:29:56;6.13;;;1.35;;
69305;SDS011;56427;51.580;4.656;2023-04-25T07:32:22;8.93;;;1.42;;
69305;SDS011;56427;51.580;4.656;2023-04-25T07:34:47;10.23;;;2.10;;
69305;SDS011;56427;51.580;4.656;2023-04-25T07:37:13;7.00;;;1.60;;
69305;SDS011;56427;51.580;4.656;2023-04-25T07:39:39;9.45;;;1.80;;
69305;SDS011;56427;51.580;4.656;2023-04-25T07:42:05;10.87;;;1.60;;
69305;SDS011;56427;51.580;4.656;2023-04-25T07:44:33;6.68;;;1.42;;
69305;SDS011;56427;51.580;4.656;2023-04-25T07:47:03;10.98;;;1.90;;
69305;SDS011;56427;51.580;4.656;2023-04-25T07:49:31;6.80;;;1.50;;
69305;SDS011;56427;51.580;4.656;2023-04-25T07:51:57;7.90;;;1.40;;
69305;SDS011;56427;51.580;4.656;2023-04-25T07:54:23;8.03;;;1.77;;
69305;SDS011;56427;51.580;4.656;2023-04-25T07:56:48;7.13;;;1.73;;
69305;SDS011;56427;51.580;4.656;2023-04-25T07:59:13;10.13;;;1.80;;
69305;SDS011;56427;51.580;4.656;2023-04-25T08:01:39;7.37;;;1.77;;
69305;SDS011;56427;51.580;4.656;2023-04-25T08:04:04;8.00;;;1.88;;
69305;SDS011;56427;51.580;4.656;2023-04-25T08:06:30;5.70;;;1.47;;
69305;SDS011;56427;51.580;4.656;2023-04-25T08:08:56;6.47;;;1.60;;
69305;SDS011;56427;51.580;4.656;2023-04-25T08:11:21;6.87;;;1.57;;
69305;SDS011;56427;51.580;4.656;2023-04-25T08:13:47;10.17;;;2.13;;
69305;SDS011;56427;51.580;4.656;2023-04-25T08:16:12;5.80;;;1.40;;
69305;SDS011;56427;51.580;4.656;2023-04-25T08:18:37;6.53;;;1.50;;
69305;SDS011;56427;51.580;4.656;2023-04-25T08:21:03;6.90;;;2.10;;
69305;SDS011;56427;51.580;4.656;2023-04-25T08:23:28;6.47;;;1.40;;
69305;SDS011;56427;51.580;4.656;2023-04-25T08:25:54;7.97;;;1.67;;
69305;SDS011;56427;51.580;4.656;2023-04-25T08:28:19;6.37;;;1.70;;
69305;SDS011;56427;51.580;4.656;2023-04-25T08:30:44;6.20;;;1.70;;
69305;SDS011;56427;51.580;4.656;2023-04-25T08:33:10;8.80;;;1.50;;
69305;SDS011;56427;51.580;4.656;2023-04-25T08:35:36;7.32;;;1.42;;
69305;SDS011;56427;51.580;4.656;2023-04-25T08:38:01;13.07;;;1.83;;
69305;SDS011;56427;51.580;4.656;2023-04-25T08:40:27;6.77;;;1.40;;
69305;SDS011;56427;51.580;4.656;2023-04-25T08:42:55;5.03;;;1.63;;
69305;SDS011;56427;51.580;4.656;2023-04-25T08:45:22;8.05;;;1.50;;
69305;SDS011;56427;51.580;4.656;2023-04-25T08:47:48;8.20;;;1.30;;
69305;SDS011;56427;51.580;4.656;2023-04-25T08:50:17;5.40;;;1.20;;
69305;SDS011;56427;51.580;4.656;2023-04-25T08:52:44;3.80;;;1.10;;
69305;SDS011;56427;51.580;4.656;2023-04-25T08:55:13;4.80;;;1.27;;
69305;SDS011;56427;51.580;4.656;2023-04-25T08:57:40;9.65;;;1.70;;
69305;SDS011;56427;51.580;4.656;2023-04-25T09:00:11;8.48;;;1.60;;
69305;SDS011;56427;51.580;4.656;2023-04-25T09:02:38;7.00;;;1.60;;
69305;SDS011;56427;51.580;4.656;2023-04-25T09:05:04;9.63;;;1.83;;
69305;SDS011;56427;51.580;4.656;2023-04-25T09:07:31;6.10;;;1.42;;
69305;SDS011;56427;51.580;4.656;2023-04-25T09:09:57;9.57;;;1.65;;
69305;SDS011;56427;51.580;4.656;2023-04-25T09:12:26;6.45;;;1.10;;
69305;SDS011;56427;51.580;4.656;2023-04-25T09:15:06;6.63;;;1.20;;
69305;SDS011;56427;51.580;4.656;2023-04-25T09:17:33;8.40;;;1.63;;
69305;SDS011;56427;51.580;4.656;2023-04-25T09:20:05;9.97;;;1.60;;
69305;SDS011;56427;51.580;4.656;2023-04-25T09:22:32;8.70;;;1.40;;
69305;SDS011;56427;51.580;4.656;2023-04-25T09:24:57;5.37;;;1.40;;
69305;SDS011;56427;51.580;4.656;2023-04-25T09:27:27;9.95;;;1.50;;
69305;SDS011;56427;51.580;4.656;2023-04-25T09:29:58;7.03;;;1.40;;
69305;SDS011;56427;51.580;4.656;2023-04-25T09:32:25;7.13;;;1.45;;
69305;SDS011;56427;51.580;4.656;2023-04-25T09:34:52;8.00;;;1.33;;
69305;SDS011;56427;51.580;4.656;2023-04-25T09:39:45;5.57;;;1.00;;
69305;SDS011;56427;51.580;4.656;2023-04-25T09:42:15;8.57;;;1.30;;
69305;SDS011;56427;51.580;4.656;2023-04-25T09:44:42;5.60;;;1.20;;
69305;SDS011;56427;51.580;4.656;2023-04-25T09:47:09;5.38;;;1.10;;
69305;SDS011;56427;51.580;4.656;2023-04-25T09:49:38;7.82;;;1.52;;
69305;SDS011;56427;51.580;4.656;2023-04-25T09:52:06;6.43;;;1.43;;
69305;SDS011;56427;51.580;4.656;2023-04-25T09:54:31;6.85;;;1.25;;
69305;SDS011;56427;51.580;4.656;2023-04-25T09:56:57;6.37;;;1.63;;
69305;SDS011;56427;51.580;4.656;2023-04-25T09:59:32;6.93;;;1.40;;
69305;SDS011;56427;51.580;4.656;2023-04-25T10:02:00;7.43;;;1.00;;
69305;SDS011;56427;51.580;4.656;2023-04-25T10:04:27;7.10;;;1.00;;
69305;SDS011;56427;51.580;4.656;2023-04-25T10:06:55;5.25;;;1.10;;
69305;SDS011;56427;51.580;4.656;2023-04-25T10:09:21;4.88;;;1.40;;
69305;SDS011;56427;51.580;4.656;2023-04-25T10:11:50;4.28;;;1.00;;
69305;SDS011;56427;51.580;4.656;2023-04-25T10:14:16;4.07;;;1.10;;
69305;SDS011;56427;51.580;4.656;2023-04-25T10:16:43;7.57;;;1.30;;
69305;SDS011;56427;51.580;4.656;2023-04-25T10:19:10;7.70;;;1.45;;
69305;SDS011;56427;51.580;4.656;2023-04-25T10:21:36;7.73;;;1.27;;
69305;SDS011;56427;51.580;4.656;2023-04-25T10:24:09;3.72;;;1.00;;
69305;SDS011;56427;51.580;4.656;2023-04-25T10:26:35;6.82;;;1.10;;
69305;SDS011;56427;51.580;4.656;2023-04-25T10:29:01;4.70;;;1.10;;
69305;SDS011;56427;51.580;4.656;2023-04-25T10:31:29;5.45;;;1.13;;
69305;SDS011;56427;51.580;4.656;2023-04-25T10:33:55;4.57;;;1.30;;
69305;SDS011;56427;51.580;4.656;2023-04-25T10:36:21;8.03;;;1.60;;
69305;SDS011;56427;51.580;4.656;2023-04-25T10:38:48;5.65;;;1.50;;
69305;SDS011;56427;51.580;4.656;2023-04-25T10:41:18;5.65;;;1.33;;
69305;SDS011;56427;51.580;4.656;2023-04-25T10:43:45;5.65;;;1.10;;
69305;SDS011;56427;51.580;4.656;2023-04-25T10:46:29;7.37;;;1.53;;
69305;SDS011;56427;51.580;4.656;2023-04-25T10:48:56;7.63;;;1.40;;
69305;SDS011;56427;51.580;4.656;2023-04-25T10:51:30;7.53;;;1.20;;
69305;SDS011;56427;51.580;4.656;2023-04-25T10:53:58;6.20;;;1.00;;
69305;SDS011;56427;51.580;4.656;2023-04-25T10:56:30;5.55;;;1.20;;
69305;SDS011;56427;51.580;4.656;2023-04-25T11:01:42;5.00;;;1.50;;
69305;SDS011;56427;51.580;4.656;2023-04-25T11:04:21;6.38;;;1.60;;
69305;SDS011;56427;51.580;4.656;2023-04-25T11:09:24;6.28;;;1.23;;
69305;SDS011;56427;51.580;4.656;2023-04-25T11:11:53;5.93;;;1.10;;
69305;SDS011;56427;51.580;4.656;2023-04-25T11:14:20;4.72;;;1.30;;
69305;SDS011;56427;51.580;4.656;2023-04-25T11:16:45;4.53;;;1.60;;
69305;SDS011;56427;51.580;4.656;2023-04-25T11:19:10;6.63;;;1.23;;
69305;SDS011;56427;51.580;4.656;2023-04-25T11:21:36;7.60;;;1.10;;
69305;SDS011;56427;51.580;4.656;2023-04-25T11:24:02;9.05;;;1.48;;
69305;SDS011;56427;51.580;4.656;2023-04-25T11:26:27;8.73;;;1.60;;
69305;SDS011;56427;51.580;4.656;2023-04-25T11:28:56;8.07;;;1.53;;
69305;SDS011;56427;51.580;4.656;2023-04-25T11:31:24;7.82;;;1.30;;
69305;SDS011;56427;51.580;4.656;2023-04-25T11:33:50;7.82;;;1.33;;
69305;SDS011;56427;51.580;4.656;2023-04-25T11:36:16;6.22;;;1.38;;
69305;SDS011;56427;51.580;4.656;2023-04-25T11:38:41;8.50;;;1.17;;
69305;SDS011;56427;51.580;4.656;2023-04-25T11:41:07;20.47;;;1.40;;
69305;SDS011;56427;51.580;4.656;2023-04-25T11:43:32;6.77;;;1.20;;
69305;SDS011;56427;51.580;4.656;2023-04-25T11:45:58;8.02;;;1.42;;
69305;SDS011;56427;51.580;4.656;2023-04-25T11:48:23;5.90;;;1.00;;
69305;SDS011;56427;51.580;4.656;2023-04-25T11:50:48;6.17;;;1.30;;
69305;SDS011;56427;51.580;4.656;2023-04-25T11:53:14;4.50;;;1.03;;
69305;SDS011;56427;51.580;4.656;2023-04-25T11:55:39;7.30;;;1.30;;
69305;SDS011;56427;51.580;4.656;2023-04-25T11:58:05;5.72;;;1.23;;
69305;SDS011;56427;51.580;4.656;2023-04-25T12:00:30;6.43;;;1.30;;
69305;SDS011;56427;51.580;4.656;2023-04-25T12:02:56;7.32;;;1.67;;
69305;SDS011;56427;51.580;4.656;2023-04-25T12:05:29;7.07;;;0.90;;
69305;SDS011;56427;51.580;4.656;2023-04-25T12:07:58;5.50;;;1.17;;
69305;SDS011;56427;51.580;4.656;2023-04-25T12:10:36;7.10;;;1.23;;
69305;SDS011;56427;51.580;4.656;2023-04-25T12:13:26;7.47;;;1.33;;
69305;SDS011;56427;51.580;4.656;2023-04-25T12:15:56;6.93;;;1.63;;
69305;SDS011;56427;51.580;4.656;2023-04-25T12:18:22;3.57;;;1.00;;
69305;SDS011;56427;51.580;4.656;2023-04-25T12:20:52;6.03;;;1.17;;
69305;SDS011;56427;51.580;4.656;2023-04-25T12:23:20;5.85;;;1.60;;
69305;SDS011;56427;51.580;4.656;2023-04-25T12:25:51;7.22;;;1.00;;
69305;SDS011;56427;51.580;4.656;2023-04-25T12:28:20;8.30;;;1.50;;
69305;SDS011;56427;51.580;4.656;2023-04-25T12:31:06;7.78;;;1.65;;
69305;SDS011;56427;51.580;4.656;2023-04-25T12:33:36;6.10;;;1.40;;
69305;SDS011;56427;51.580;4.656;2023-04-25T12:36:03;5.60;;;1.30;;
69305;SDS011;56427;51.580;4.656;2023-04-25T12:38:40;6.13;;;1.10;;
69305;SDS011;56427;51.580;4.656;2023-04-25T12:41:07;6.63;;;1.27;;
69305;SDS011;56427;51.580;4.656;2023-04-25T12:43:33;5.43;;;1.30;;
69305;SDS011;56427;51.580;4.656;2023-04-25T12:45:58;4.20;;;1.10;;
69305;SDS011;56427;51.580;4.656;2023-04-25T12:48:24;4.18;;;1.10;;
69305;SDS011;56427;51.580;4.656;2023-04-25T12:50:50;5.93;;;1.10;;
69305;SDS011;56427;51.580;4.656;2023-04-25T12:53:17;6.80;;;1.10;;
69305;SDS011;56427;51.580;4.656;2023-04-25T12:55:44;6.00;;;1.50;;
69305;SDS011;56427;51.580;4.656;2023-04-25T12:58:13;5.38;;;1.30;;
69305;SDS011;56427;51.580;4.656;2023-04-25T13:00:42;4.47;;;1.25;;
69305;SDS011;56427;51.580;4.656;2023-04-25T13:03:08;7.07;;;1.10;;
69305;SDS011;56427;51.580;4.656;2023-04-25T13:05:34;4.47;;;1.30;;
69305;SDS011;56427;51.580;4.656;2023-04-25T13:08:00;6.40;;;1.50;;
69305;SDS011;56427;51.580;4.656;2023-04-25T13:10:26;5.18;;;1.23;;
69305;SDS011;56427;51.580;4.656;2023-04-25T13:12:51;6.33;;;1.10;;
69305;SDS011;56427;51.580;4.656;2023-04-25T13:15:16;6.63;;;1.27;;
69305;SDS011;56427;51.580;4.656;2023-04-25T13:17:42;5.60;;;1.03;;
69305;SDS011;56427;51.580;4.656;2023-04-25T13:20:07;7.57;;;1.20;;
69305;SDS011;56427;51.580;4.656;2023-04-25T13:22:37;8.98;;;1.38;;
69305;SDS011;56427;51.580;4.656;2023-04-25T13:25:04;8.45;;;1.35;;
69305;SDS011;56427;51.580;4.656;2023-04-25T13:27:31;5.43;;;1.13;;
69305;SDS011;56427;51.580;4.656;2023-04-25T13:29:59;5.07;;;1.20;;
69305;SDS011;56427;51.580;4.656;2023-04-25T13:32:25;6.25;;;1.17;;
69305;SDS011;56427;51.580;4.656;2023-04-25T13:34:51;4.85;;;0.90;;
69305;SDS011;56427;51.580;4.656;2023-04-25T13:37:16;5.07;;;1.20;;
69305;SDS011;56427;51.580;4.656;2023-04-25T13:39:41;6.13;;;0.97;;
69305;SDS011;56427;51.580;4.656;2023-04-25T13:42:07;4.60;;;1.10;;
69305;SDS011;56427;51.580;4.656;2023-04-25T13:44:32;5.43;;;1.20;;
69305;SDS011;56427;51.580;4.656;2023-04-25T13:46:57;5.70;;;1.40;;
69305;SDS011;56427;51.580;4.656;2023-04-25T13:49:25;4.03;;;1.20;;
69305;SDS011;56427;51.580;4.656;2023-04-25T13:51:50;6.13;;;1.27;;
69305;SDS011;56427;51.580;4.656;2023-04-25T13:54:16;6.40;;;1.33;;
69305;SDS011;56427;51.580;4.656;2023-04-25T13:56:41;5.83;;;1.40;;
69305;SDS011;56427;51.580;4.656;2023-04-25T13:59:07;8.00;;;1.60;;
69305;SDS011;56427;51.580;4.656;2023-04-25T14:01:32;9.15;;;1.50;;
69305;SDS011;56427;51.580;4.656;2023-04-25T14:04:00;8.70;;;1.40;;
69305;SDS011;56427;51.580;4.656;2023-04-25T14:06:25;7.80;;;1.27;;
69305;SDS011;56427;51.580;4.656;2023-04-25T14:08:52;6.80;;;1.30;;
69305;SDS011;56427;51.580;4.656;2023-04-25T14:11:18;5.70;;;1.38;;
69305;SDS011;56427;51.580;4.656;2023-04-25T14:13:44;8.30;;;1.17;;
69305;SDS011;56427;51.580;4.656;2023-04-25T14:16:10;5.10;;;1.43;;
69305;SDS011;56427;51.580;4.656;2023-04-25T14:18:35;6.15;;;1.48;;
69305;SDS011;56427;51.580;4.656;2023-04-25T14:21:00;5.40;;;1.40;;
69305;SDS011;56427;51.580;4.656;2023-04-25T14:23:26;9.20;;;1.23;;
69305;SDS011;56427;51.580;4.656;2023-04-25T14:25:51;5.57;;;1.30;;
69305;SDS011;56427;51.580;4.656;2023-04-25T14:28:17;5.90;;;1.43;;
69305;SDS011;56427;51.580;4.656;2023-04-25T14:30:42;4.50;;;1.40;;
69305;SDS011;56427;51.580;4.656;2023-04-25T14:33:07;4.77;;;1.40;;
69305;SDS011;56427;51.580;4.656;2023-04-25T14:35:33;6.03;;;1.42;;
69305;SDS011;56427;51.580;4.656;2023-04-25T14:37:58;4.63;;;1.50;;
69305;SDS011;56427;51.580;4.656;2023-04-25T14:40:23;6.83;;;1.40;;
69305;SDS011;56427;51.580;4.656;2023-04-25T14:42:49;7.83;;;1.40;;
69305;SDS011;56427;51.580;4.656;2023-04-25T14:45:16;6.93;;;1.48;;